Time;durP1;ratioP1;P1;durP2;ratioP2;P2;SDS_P1;SDS_P2;PMS_P1;PMS_P2;Temp;Humidity;BMP_temperature;BMP_pressure;BME280_temperature;BME280_humidity;BME280_pressure;Samples;Min_cycle;Max_cycle;Signal;HPM_P1;HPM_P2
2023/04/01 00:00:32;;;;;;;;;1.00;1.00;;;;;20.29;52.46;98856.63;110199;1264;18535;-77
2023/04/01 00:03:15;;;;;;;;;3.00;3.00;;;;;20.29;52.36;98857.50;110151;1264;18649;-77
2023/04/01 00:05:42;;;;;;;;;3.00;3.00;;;;;20.29;52.47;98853.65;110179;1247;17787;-78
2023/04/01 00:08:09;;;;;;;;;1.00;1.00;;;;;20.29;52.48;98849.89;110193;1264;21678;-77
2023/04/01 00:10:37;;;;;;;;;3.00;3.00;;;;;20.29;52.51;98852.35;110149;1264;18813;-77
2023/04/01 00:13:04;;;;;;;;;2.00;2.00;;;;;20.29;52.46;98850.01;110180;1263;21627;-77
2023/04/01 00:15:31;;;;;;;;;2.33;1.00;;;;;20.29;52.53;98847.33;110184;1248;19104;-77
2023/04/01 00:17:59;;;;;;;;;3.00;3.00;;;;;20.30;52.53;98847.74;110162;1264;18205;-77
2023/04/01 00:20:26;;;;;;;;;3.00;3.00;;;;;20.30;52.33;98848.70;110212;1256;21924;-77
2023/04/01 00:22:54;;;;;;;;;1.00;1.00;;;;;20.29;52.37;98847.38;110194;1250;22389;-77
2023/04/01 00:25:22;;;;;;;;;3.00;3.00;;;;;20.28;52.40;98844.91;110188;1263;18169;-77
2023/04/01 00:27:50;;;;;;;;;3.00;1.00;;;;;20.28;52.21;98847.74;110107;1248;19366;-77
2023/04/01 00:30:17;;;;;;;;;1.00;1.00;;;;;20.28;52.31;98845.41;110212;1257;18765;-77
2023/04/01 00:32:45;;;;;;;;;3.00;3.00;;;;;20.29;52.27;98843.78;110234;1248;19187;-77
2023/04/01 00:35:13;;;;;;;;;1.00;1.00;;;;;20.29;52.37;98844.23;110186;1264;17871;-77
2023/04/01 00:37:40;;;;;;;;;1.00;1.00;;;;;20.28;52.39;98841.23;110204;1247;20086;-77
2023/04/01 00:40:08;;;;;;;;;3.00;3.00;;;;;20.28;52.49;98842.69;110203;1263;19941;-77
2023/04/01 00:42:35;;;;;;;;;1.00;1.00;;;;;20.28;52.31;98843.83;110223;1264;20325;-79
2023/04/01 00:45:02;;;;;;;;;2.00;1.00;;;;;20.28;52.38;98841.48;110220;1264;19928;-78
2023/04/01 00:47:30;;;;;;;;;1.00;1.00;;;;;20.28;52.20;98840.38;110208;1263;18338;-77
2023/04/01 00:49:57;;;;;;;;;1.00;1.00;;;;;20.28;52.37;98840.98;110193;1264;17890;-77
2023/04/01 00:52:24;;;;;;;;;3.00;3.00;;;;;20.28;52.46;98839.83;110154;1264;21762;-77
2023/04/01 00:54:51;;;;;;;;;1.00;1.00;;;;;20.28;52.23;98837.48;110158;1247;20760;-77
2023/04/01 00:57:19;;;;;;;;;3.00;3.00;;;;;20.29;52.19;98840.27;110210;1263;18022;-77
2023/04/01 00:59:47;;;;;;;;;2.00;1.00;;;;;20.28;52.17;98834.08;110173;1263;18893;-77
2023/04/01 01:02:14;;;;;;;;;1.00;1.00;;;;;20.28;52.25;98834.06;110214;1264;19117;-78
2023/04/01 01:04:41;;;;;;;;;1.00;1.00;;;;;20.27;52.21;98832.89;110212;1257;19317;-77
2023/04/01 01:07:09;;;;;;;;;2.00;2.00;;;;;20.28;52.23;98834.58;110174;1248;20180;-77
2023/04/01 01:09:36;;;;;;;;;1.00;1.00;;;;;20.27;52.49;98830.38;110184;1263;18245;-77
2023/04/01 01:12:03;;;;;;;;;1.00;1.00;;;;;20.27;52.36;98828.34;110204;1257;17891;-77
2023/04/01 01:14:31;;;;;;;;;3.33;3.00;;;;;20.27;52.28;98825.83;110155;1248;20775;-77
2023/04/01 01:16:59;;;;;;;;;3.00;3.00;;;;;20.28;52.18;98828.09;110170;1264;18276;-77
2023/04/01 01:19:27;;;;;;;;;1.00;1.00;;;;;20.28;52.25;98824.23;110205;1250;18602;-77
2023/04/01 01:21:54;;;;;;;;;1.00;1.00;;;;;20.27;52.22;98822.17;110194;1264;22811;-77
2023/04/01 01:24:21;;;;;;;;;1.00;1.00;;;;;20.27;52.22;98819.84;110217;1257;19498;-77
2023/04/01 01:26:49;;;;;;;;;3.00;3.00;;;;;20.28;52.19;98822.43;110170;1264;22917;-77
2023/04/01 01:29:16;;;;;;;;;3.00;3.00;;;;;20.28;52.25;98822.98;110179;1248;22295;-77
2023/04/01 01:31:43;;;;;;;;;3.00;3.00;;;;;20.28;52.08;98822.10;110213;1263;21710;-77
2023/04/01 01:34:11;;;;;;;;;3.00;3.00;;;;;20.28;52.26;98825.49;110192;1263;18661;-77
2023/04/01 01:36:38;;;;;;;;;1.00;1.00;;;;;20.28;52.15;98826.63;110197;1248;21630;-77
2023/04/01 01:39:06;;;;;;;;;1.00;1.00;;;;;20.28;52.25;98821.77;110181;1264;18537;-77
2023/04/01 01:41:33;;;;;;;;;1.00;1.00;;;;;20.28;52.32;98823.57;110201;1263;19034;-77
2023/04/01 01:44:01;;;;;;;;;2.00;1.00;;;;;20.27;52.24;98816.33;110245;1248;23141;-78
2023/04/01 01:46:28;;;;;;;;;3.00;3.00;;;;;20.27;52.22;98823.11;110269;1263;18367;-78
2023/04/01 01:48:55;;;;;;;;;2.00;2.00;;;;;20.28;52.27;98820.84;110290;1263;18637;-77
2023/04/01 01:51:23;;;;;;;;;1.00;1.00;;;;;20.28;52.21;98818.83;110324;1248;21919;-77
2023/04/01 01:53:50;;;;;;;;;1.00;1.00;;;;;20.29;52.38;98820.34;110282;1263;18384;-77
2023/04/01 01:56:17;;;;;;;;;2.00;2.00;;;;;20.29;52.12;98815.41;110192;1264;18638;-77
2023/04/01 01:58:45;;;;;;;;;1.00;1.00;;;;;20.28;52.25;98814.23;110184;1264;19420;-77
2023/04/01 02:01:12;;;;;;;;;1.00;1.00;;;;;20.28;52.18;98814.94;110188;1264;18407;-77
2023/04/01 02:03:40;;;;;;;;;1.00;1.00;;;;;20.28;52.20;98811.56;110172;1263;18605;-77
2023/04/01 02:06:07;;;;;;;;;1.00;1.00;;;;;20.27;52.23;98815.45;110190;1264;20686;-77
2023/04/01 02:08:34;;;;;;;;;3.00;3.00;;;;;20.27;52.10;98811.85;110183;1248;19581;-77
2023/04/01 02:11:02;;;;;;;;;1.00;1.00;;;;;20.28;52.22;98813.95;110234;1263;19946;-77
2023/04/01 02:13:29;;;;;;;;;3.00;3.00;;;;;20.27;52.29;98812.92;110190;1248;20903;-77
2023/04/01 02:15:56;;;;;;;;;3.33;3.00;;;;;20.28;51.98;98812.05;110247;1257;18594;-77
2023/04/01 02:18:24;;;;;;;;;1.00;1.00;;;;;20.27;52.02;98810.38;110286;1248;20374;-79
2023/04/01 02:20:51;;;;;;;;;3.00;3.00;;;;;20.27;52.25;98807.61;110268;1257;19326;-78
2023/04/01 02:23:19;;;;;;;;;1.00;1.00;;;;;20.28;52.13;98808.88;110237;1263;18490;-77
2023/04/01 02:25:46;;;;;;;;;1.00;1.00;;;;;20.27;52.24;98808.96;110206;1264;18614;-79
2023/04/01 02:28:15;;;;;;;;;1.00;1.00;;;;;20.28;52.22;98808.88;110193;1251;22210;-79
2023/04/01 02:30:43;;;;;;;;;3.00;3.00;;;;;20.28;52.34;98808.48;110247;1248;22235;-79
2023/04/01 02:33:10;;;;;;;;;3.00;3.00;;;;;20.27;52.06;98812.10;110248;1248;19962;-78
2023/04/01 02:35:37;;;;;;;;;3.00;1.00;;;;;20.27;52.11;98809.16;110228;1247;19400;-78
2023/04/01 02:38:05;;;;;;;;;1.00;1.00;;;;;20.27;52.19;98813.52;110185;1263;22176;-77
2023/04/01 02:40:32;;;;;;;;;1.00;1.00;;;;;20.27;52.13;98816.45;110204;1264;19221;-76
2023/04/01 02:42:59;;;;;;;;;3.00;3.00;;;;;20.27;52.05;98819.41;110187;1263;19652;-77
2023/04/01 02:45:27;;;;;;;;;3.00;3.00;;;;;20.27;52.04;98818.04;110165;1263;18339;-78
2023/04/01 02:47:54;;;;;;;;;1.00;1.00;;;;;20.28;52.17;98820.13;110198;1263;18624;-78
2023/04/01 02:50:21;;;;;;;;;3.00;1.00;;;;;20.27;52.09;98818.16;110181;1263;19347;-78
2023/04/01 02:52:49;;;;;;;;;3.00;1.00;;;;;20.28;51.89;98820.59;110157;1247;18430;-78
2023/04/01 02:55:16;;;;;;;;;3.33;3.00;;;;;20.28;52.17;98821.05;110203;1264;18662;-78
2023/04/01 02:57:44;;;;;;;;;1.00;1.00;;;;;20.27;52.15;98823.98;110187;1248;19299;-77
2023/04/01 03:00:11;;;;;;;;;1.00;1.00;;;;;20.27;52.14;98825.54;110149;1263;18362;-78
2023/04/01 03:02:39;;;;;;;;;1.00;1.00;;;;;20.27;52.10;98827.83;110177;1264;21202;-78
2023/04/01 03:05:06;;;;;;;;;3.00;3.00;;;;;20.26;52.06;98828.45;110196;1264;19338;-78
2023/04/01 03:07:34;;;;;;;;;3.00;1.00;;;;;20.27;51.98;98831.30;110220;1264;18403;-78
2023/04/01 03:10:01;;;;;;;;;2.00;2.00;;;;;20.27;52.04;98833.65;110213;1264;18610;-78
2023/04/01 03:12:29;;;;;;;;;3.00;2.00;;;;;20.27;52.02;98837.67;110235;1264;20699;-78
2023/04/01 03:14:56;;;;;;;;;3.00;1.00;;;;;20.27;52.01;98834.02;110276;1264;18240;-77
2023/04/01 03:17:23;;;;;;;;;1.00;1.00;;;;;20.27;52.05;98836.02;110310;1249;21142;-78
2023/04/01 03:19:51;;;;;;;;;1.00;1.00;;;;;20.26;52.02;98841.17;110241;1257;19241;-77
2023/04/01 03:22:20;;;;;;;;;1.00;1.00;;;;;20.26;51.99;98838.96;110270;1256;22792;-78
2023/04/01 03:24:48;;;;;;;;;1.00;1.00;;;;;20.26;52.02;98839.11;110228;1264;19923;-78
2023/04/01 03:27:15;;;;;;;;;3.00;3.00;;;;;20.27;52.10;98842.19;110188;1264;19831;-78
2023/04/01 03:29:42;;;;;;;;;3.00;3.00;;;;;20.27;52.01;98839.63;110202;1248;18376;-78
2023/04/01 03:32:10;;;;;;;;;1.00;1.00;;;;;20.26;52.12;98837.30;110156;1248;20017;-78
2023/04/01 03:34:37;;;;;;;;;1.00;1.00;;;;;20.26;52.01;98835.20;110144;1257;19349;-79
2023/04/01 03:37:04;;;;;;;;;1.00;1.00;;;;;20.27;52.06;98834.52;110166;1248;20786;-78
2023/04/01 03:39:32;;;;;;;;;3.00;3.00;;;;;20.27;51.96;98831.48;110110;1264;18723;-78
2023/04/01 03:41:59;;;;;;;;;1.00;1.00;;;;;20.27;51.94;98837.11;110155;1263;19512;-77
2023/04/01 03:44:27;;;;;;;;;3.00;1.00;;;;;20.27;51.86;98837.45;110163;1264;18446;-77
2023/04/01 03:46:54;;;;;;;;;3.50;3.00;;;;;20.28;51.88;98839.84;110160;1248;21227;-77
2023/04/01 03:49:21;;;;;;;;;1.00;1.00;;;;;20.28;51.89;98840.42;110159;1248;20652;-77
2023/04/01 03:51:49;;;;;;;;;1.00;1.00;;;;;20.28;52.00;98847.30;110186;1264;18526;-77
2023/04/01 03:54:16;;;;;;;;;3.00;3.00;;;;;20.27;52.04;98847.25;110175;1257;19677;-77
2023/04/01 03:56:44;;;;;;;;;1.00;1.00;;;;;20.26;51.95;98849.86;110191;1264;19351;-78
2023/04/01 03:59:11;;;;;;;;;3.00;1.00;;;;;20.26;52.05;98852.19;110170;1248;19608;-77
2023/04/01 04:01:38;;;;;;;;;3.00;3.00;;;;;20.27;52.01;98855.45;110168;1264;21264;-77
2023/04/01 04:04:06;;;;;;;;;3.00;1.00;;;;;20.26;52.03;98859.69;110136;1263;19823;-77
2023/04/01 04:06:33;;;;;;;;;1.00;1.00;;;;;20.25;51.93;98856.17;110155;1264;18378;-78
2023/04/01 04:09:00;;;;;;;;;1.00;1.00;;;;;20.26;51.99;98862.40;110157;1248;18561;-77
2023/04/01 04:11:28;;;;;;;;;3.00;3.00;;;;;20.25;51.89;98863.42;110159;1248;20754;-77
2023/04/01 04:13:55;;;;;;;;;1.00;1.00;;;;;20.25;51.87;98866.56;110164;1248;19730;-77
2023/04/01 04:16:22;;;;;;;;;3.00;1.00;;;;;20.25;52.02;98870.91;110189;1263;18572;-78
2023/04/01 04:18:50;;;;;;;;;2.00;2.00;;;;;20.26;51.92;98873.13;110184;1264;19368;-78
2023/04/01 04:21:18;;;;;;;;;1.00;1.00;;;;;20.25;51.85;98875.59;110183;1264;19511;-78
2023/04/01 04:23:45;;;;;;;;;1.00;1.00;;;;;20.25;51.86;98874.30;110135;1264;18674;-78
2023/04/01 04:26:12;;;;;;;;;2.00;1.00;;;;;20.26;51.80;98876.42;110163;1264;19891;-78
2023/04/01 04:28:40;;;;;;;;;3.00;1.00;;;;;20.25;51.80;98876.85;110211;1264;22469;-79
2023/04/01 04:31:08;;;;;;;;;1.00;1.00;;;;;20.26;51.83;98882.96;110238;1264;22303;-78
2023/04/01 04:33:35;;;;;;;;;3.00;3.00;;;;;20.25;51.92;98882.55;110190;1264;22510;-79
2023/04/01 04:36:03;;;;;;;;;3.00;3.00;;;;;20.25;51.80;98883.92;110220;1264;18581;-79
2023/04/01 04:38:30;;;;;;;;;1.00;1.00;;;;;20.25;51.77;98885.55;110197;1264;18858;-78
2023/04/01 04:40:57;;;;;;;;;3.00;1.00;;;;;20.24;52.04;98886.83;110165;1247;19862;-78
2023/04/01 04:43:25;;;;;;;;;3.00;1.00;;;;;20.24;52.04;98893.48;110160;1264;18381;-79
2023/04/01 04:45:52;;;;;;;;;1.00;1.00;;;;;20.24;51.78;98888.58;110155;1256;21218;-78
2023/04/01 04:48:20;;;;;;;;;1.00;1.00;;;;;20.26;51.91;98891.84;110176;1257;20888;-76
2023/04/01 04:50:47;;;;;;;;;1.00;1.00;;;;;20.26;51.72;98893.45;110161;1264;18834;-76
2023/04/01 04:53:15;;;;;;;;;3.00;3.00;;;;;20.26;51.93;98895.52;110206;1264;18584;-76
2023/04/01 04:55:42;;;;;;;;;1.00;1.00;;;;;20.26;51.85;98898.56;110186;1257;19389;-76
2023/04/01 04:58:10;;;;;;;;;1.00;1.00;;;;;20.25;51.99;98903.67;110152;1251;19595;-76
2023/04/01 05:00:37;;;;;;;;;3.00;3.00;;;;;20.25;51.83;98905.90;110182;1264;18521;-75
2023/04/01 05:03:04;;;;;;;;;1.00;1.00;;;;;20.26;51.81;98911.79;110167;1256;20784;-75
2023/04/01 05:05:32;;;;;;;;;1.00;1.00;;;;;20.25;51.77;98911.88;110164;1247;18927;-76
2023/04/01 05:07:59;;;;;;;;;1.00;1.00;;;;;20.25;51.72;98911.84;110172;1263;18736;-75
2023/04/01 05:10:26;;;;;;;;;1.00;1.00;;;;;20.25;51.74;98910.29;110178;1264;19380;-76
2023/04/01 05:12:54;;;;;;;;;1.00;1.00;;;;;20.26;51.62;98914.68;110162;1264;18484;-76
2023/04/01 05:15:21;;;;;;;;;1.00;1.00;;;;;20.25;51.74;98917.86;110151;1264;18630;-76
2023/04/01 05:17:49;;;;;;;;;1.00;1.00;;;;;20.26;51.78;98919.79;110123;1264;19526;-76
2023/04/01 05:20:16;;;;;;;;;2.00;2.00;;;;;20.25;51.93;98924.17;110142;1264;22306;-75
2023/04/01 05:22:43;;;;;;;;;3.00;3.00;;;;;20.25;51.67;98927.48;110121;1251;20063;-76
2023/04/01 05:25:11;;;;;;;;;1.00;1.00;;;;;20.25;51.75;98931.09;110154;1264;19502;-76
2023/04/01 05:27:39;;;;;;;;;1.00;1.00;;;;;20.26;51.92;98933.39;110153;1250;19643;-76
2023/04/01 05:30:06;;;;;;;;;1.00;1.00;;;;;20.26;51.68;98936.23;110122;1257;18652;-77
2023/04/01 05:32:34;;;;;;;;;1.00;1.00;;;;;20.25;51.75;98941.09;110190;1264;19362;-76
2023/04/01 05:35:01;;;;;;;;;3.00;3.00;;;;;20.26;51.84;98940.08;110186;1248;19509;-76
2023/04/01 05:37:29;;;;;;;;;3.00;3.00;;;;;20.26;51.69;98941.38;110166;1264;18633;-76
2023/04/01 05:39:58;;;;;;;;;2.00;2.00;;;;;20.25;51.71;98943.98;110203;1263;19390;-77
2023/04/01 05:42:25;;;;;;;;;1.00;1.00;;;;;20.24;51.79;98947.16;110165;1264;18399;-76
2023/04/01 05:44:53;;;;;;;;;1.00;1.00;;;;;20.24;51.64;98945.74;110165;1257;18603;-76
2023/04/01 05:47:20;;;;;;;;;1.00;1.00;;;;;20.25;51.78;98950.60;110206;1264;19243;-76
2023/04/01 05:49:47;;;;;;;;;3.00;1.00;;;;;20.25;51.90;98954.20;110214;1248;19754;-76
2023/04/01 05:52:15;;;;;;;;;3.00;3.00;;;;;20.24;51.76;98955.00;110203;1263;20160;-76
2023/04/01 05:54:43;;;;;;;;;1.00;1.00;;;;;20.25;51.54;98956.54;110220;1250;20857;-76
2023/04/01 05:57:10;;;;;;;;;1.00;1.00;;;;;20.25;51.53;98960.14;110228;1248;19601;-76
2023/04/01 05:59:38;;;;;;;;;3.00;3.00;;;;;20.24;51.54;98962.45;110175;1263;18852;-76
2023/04/01 06:02:05;;;;;;;;;1.00;1.00;;;;;20.25;51.63;98964.91;110147;1263;21505;-76
2023/04/01 06:04:32;;;;;;;;;1.00;1.00;;;;;20.25;51.76;98966.70;110155;1264;18560;-76
2023/04/01 06:07:00;;;;;;;;;3.00;1.00;;;;;20.25;51.54;98970.85;110134;1250;22252;-78
2023/04/01 06:09:27;;;;;;;;;3.00;1.00;;;;;20.25;51.72;98973.06;110135;1250;20801;-79
2023/04/01 06:11:54;;;;;;;;;3.00;3.00;;;;;20.25;51.72;98976.16;110154;1248;19405;-79
2023/04/01 06:14:21;;;;;;;;;1.00;1.00;;;;;20.26;51.50;98978.55;110200;1257;18504;-76
2023/04/01 06:16:49;;;;;;;;;1.00;1.00;;;;;20.24;51.61;98978.94;110185;1263;19352;-78
2023/04/01 06:19:16;;;;;;;;;9.00;9.00;;;;;20.24;51.59;98985.51;110175;1247;22803;-78
2023/04/01 06:21:43;;;;;;;;;13.00;12.00;;;;;20.10;50.47;98991.29;110229;1263;18732;-78
2023/04/01 06:24:12;;;;;;;;;14.00;12.50;;;;;19.91;48.75;98988.17;110256;1263;19309;-81
2023/04/01 06:26:40;;;;;;;;;14.00;13.50;;;;;19.78;48.13;98991.34;110265;1248;20440;-78
2023/04/01 06:29:08;;;;;;;;;13.00;13.00;;;;;19.68;47.38;98992.73;110147;1248;21865;-79
2023/04/01 06:31:35;;;;;;;;;8.33;7.67;;;;;19.61;47.85;98990.74;110161;1248;20747;-76
2023/04/01 06:34:02;;;;;;;;;15.33;12.67;;;;;19.70;47.87;98995.63;110147;1263;21656;-76
2023/04/01 06:36:29;;;;;;;;;12.00;9.00;;;;;19.78;48.04;99000.88;110155;1250;20150;-76
2023/04/01 06:38:57;;;;;;;;;10.00;8.00;;;;;19.85;48.00;98999.86;110137;1263;19637;-77
2023/04/01 06:41:24;;;;;;;;;9.00;9.00;;;;;19.89;47.93;99004.32;110194;1247;22319;-76
2023/04/01 06:43:51;;;;;;;;;9.00;9.00;;;;;19.92;48.07;99004.44;110170;1249;20003;-76
2023/04/01 06:46:19;;;;;;;;;9.00;7.00;;;;;19.96;48.11;99010.23;110150;1264;22232;-79
2023/04/01 06:48:46;;;;;;;;;9.00;7.00;;;;;19.98;48.15;99011.91;110170;1264;18479;-76
2023/04/01 06:51:13;;;;;;;;;12.00;10.00;;;;;20.00;48.00;99014.48;110220;1263;18624;-76
2023/04/01 06:53:41;;;;;;;;;6.50;6.00;;;;;20.02;48.21;99015.29;110158;1256;22315;-75
2023/04/01 06:56:08;;;;;;;;;7.00;6.50;;;;;20.03;48.20;99016.45;110173;1263;19746;-77
2023/04/01 06:58:35;;;;;;;;;6.00;6.00;;;;;20.05;48.60;99023.98;110211;1257;18819;-77
2023/04/01 07:01:03;;;;;;;;;6.00;6.00;;;;;20.06;48.67;99028.55;110174;1261;22728;-77
2023/04/01 07:03:30;;;;;;;;;6.00;6.00;;;;;20.07;49.01;99031.09;110256;1264;18453;-77
2023/04/01 07:05:58;;;;;;;;;6.00;6.00;;;;;20.08;48.83;99030.70;110289;1263;19965;-78
2023/04/01 07:08:25;;;;;;;;;7.00;7.00;;;;;20.09;49.03;99032.42;110238;1257;19573;-78
2023/04/01 07:10:53;;;;;;;;;6.00;6.00;;;;;20.10;48.98;99032.34;110235;1248;19608;-79
2023/04/01 07:13:21;;;;;;;;;7.00;6.00;;;;;20.10;49.21;99035.73;110212;1249;20047;-77
2023/04/01 07:15:49;;;;;;;;;4.00;4.00;;;;;20.11;49.17;99034.73;110218;1263;19284;-77
2023/04/01 07:18:17;;;;;;;;;6.00;6.00;;;;;20.10;49.47;99036.27;110168;1264;22774;-77
2023/04/01 07:20:44;;;;;;;;;3.00;3.00;;;;;20.11;49.38;99039.15;110190;1263;18623;-78
2023/04/01 07:23:11;;;;;;;;;6.00;4.00;;;;;20.11;49.37;99042.08;110216;1264;21969;-79
2023/04/01 07:25:39;;;;;;;;;3.00;3.00;;;;;20.12;49.72;99045.85;110250;1264;19851;-80
2023/04/01 07:28:06;;;;;;;;;4.00;4.00;;;;;20.12;49.57;99047.57;110345;1264;18569;-77
2023/04/01 07:30:33;;;;;;;;;6.00;5.00;;;;;20.13;49.56;99048.02;110228;1264;19386;-78
2023/04/01 07:33:01;;;;;;;;;4.00;4.00;;;;;20.12;49.58;99052.41;110246;1264;18601;-78
2023/04/01 07:35:28;;;;;;;;;3.00;3.00;;;;;20.13;49.90;99054.34;110268;1263;18778;-78
2023/04/01 07:37:55;;;;;;;;;3.00;3.00;;;;;20.13;49.81;99053.08;110237;1263;19335;-77
2023/04/01 07:40:22;;;;;;;;;3.00;3.00;;;;;20.13;49.92;99059.73;110183;1248;22058;-77
2023/04/01 07:42:50;;;;;;;;;3.50;3.00;;;;;20.13;49.80;99059.66;110159;1264;21470;-77
2023/04/01 07:45:17;;;;;;;;;4.00;4.00;;;;;20.14;50.01;99062.41;110157;1263;19374;-77
2023/04/01 07:47:45;;;;;;;;;3.50;3.50;;;;;20.13;50.12;99065.59;110197;1264;18508;-77
2023/04/01 07:50:12;;;;;;;;;3.00;3.00;;;;;20.13;49.99;99068.39;110224;1264;18656;-77
2023/04/01 07:52:39;;;;;;;;;3.00;3.00;;;;;20.14;50.10;99072.91;110235;1257;19365;-76
2023/04/01 07:55:07;;;;;;;;;1.00;1.00;;;;;20.14;50.10;99075.80;110207;1257;19989;-76
2023/04/01 07:57:34;;;;;;;;;4.00;3.00;;;;;20.14;50.13;99080.70;110157;1264;18597;-76
2023/04/01 08:00:01;;;;;;;;;1.00;1.00;;;;;20.14;50.17;99084.45;110095;1264;21044;-76
2023/04/01 08:02:29;;;;;;;;;3.00;3.00;;;;;20.14;50.28;99089.23;110162;1251;19725;-76
2023/04/01 08:04:57;;;;;;;;;1.00;1.00;;;;;20.13;50.25;99092.38;110188;1264;19904;-77
2023/04/01 08:07:24;;;;;;;;;3.00;3.00;;;;;20.14;50.13;99095.34;110217;1263;21704;-76
2023/04/01 08:09:52;;;;;;;;;1.00;1.00;;;;;20.14;50.30;99096.59;110265;1248;19597;-76
2023/04/01 08:12:19;;;;;;;;;3.00;3.00;;;;;20.14;50.30;99096.77;110247;1248;18613;-76
2023/04/01 08:14:47;;;;;;;;;3.00;3.00;;;;;20.14;50.46;99101.16;110207;1257;19275;-76
2023/04/01 08:17:15;;;;;;;;;3.00;3.00;;;;;20.14;50.40;99104.41;110197;1257;19598;-76
2023/04/01 08:19:42;;;;;;;;;1.00;1.00;;;;;20.14;50.34;99111.48;110213;1263;18651;-77
2023/04/01 08:22:09;;;;;;;;;4.00;3.00;;;;;20.14;50.27;99111.12;110178;1248;19478;-77
2023/04/01 08:24:37;;;;;;;;;3.00;3.00;;;;;20.14;50.44;99116.22;110175;1251;19662;-77
2023/04/01 08:27:04;;;;;;;;;3.00;3.00;;;;;20.13;50.43;99120.45;109873;1264;423884;-77
2023/04/01 08:29:31;;;;;;;;;3.00;3.00;;;;;20.15;50.44;99127.52;110199;1247;19319;-77
2023/04/01 08:31:59;;;;;;;;;3.50;3.00;;;;;20.15;50.56;99128.81;110221;1263;22203;-77
2023/04/01 08:34:26;;;;;;;;;3.00;3.00;;;;;20.14;50.30;99129.77;110252;1263;18595;-77
2023/04/01 08:36:55;;;;;;;;;4.00;3.00;;;;;20.14;50.48;99133.63;110180;1247;20784;-77
2023/04/01 08:39:22;;;;;;;;;3.00;3.00;;;;;20.14;50.57;99135.77;110176;1247;18314;-77
2023/04/01 08:41:49;;;;;;;;;3.00;3.00;;;;;20.14;50.54;99137.73;110221;1251;19849;-77
2023/04/01 08:44:17;;;;;;;;;1.00;1.00;;;;;20.14;50.40;99138.48;110150;1248;21947;-77
2023/04/01 08:46:44;;;;;;;;;3.00;3.00;;;;;20.15;50.54;99142.87;110161;1263;18495;-77
2023/04/01 08:49:11;;;;;;;;;3.00;3.00;;;;;20.15;50.49;99142.58;110211;1263;18758;-77
2023/04/01 08:51:39;;;;;;;;;1.00;1.00;;;;;20.15;50.55;99146.71;110145;1263;19468;-77
2023/04/01 08:54:06;;;;;;;;;1.00;1.00;;;;;20.15;50.58;99150.28;110226;1264;19500;-77
2023/04/01 08:56:34;;;;;;;;;3.00;3.00;;;;;20.16;50.58;99150.45;110203;1263;19979;-77
2023/04/01 08:59:01;;;;;;;;;3.00;3.00;;;;;20.16;50.63;99156.02;110199;1247;20634;-77
2023/04/01 09:01:29;;;;;;;;;3.00;3.00;;;;;20.15;50.34;99154.63;110197;1263;18967;-79
2023/04/01 09:03:56;;;;;;;;;3.00;3.00;;;;;20.16;50.60;99158.42;110263;1263;19273;-77
2023/04/01 09:06:23;;;;;;;;;3.00;3.00;;;;;20.15;50.60;99159.35;110251;1263;19349;-80
2023/04/01 09:08:51;;;;;;;;;1.00;1.00;;;;;20.16;50.37;99160.03;110163;1263;19486;-79
2023/04/01 09:11:18;;;;;;;;;3.00;3.00;;;;;20.15;50.52;99161.00;110186;1263;22450;-79
2023/04/01 09:13:46;;;;;;;;;3.00;3.00;;;;;20.16;50.53;99163.63;110255;1263;19315;-78
2023/04/01 09:16:13;;;;;;;;;3.00;3.00;;;;;20.15;50.57;99168.99;110221;1248;20522;-78
2023/04/01 09:18:40;;;;;;;;;2.00;2.00;;;;;20.15;50.58;99167.73;110224;1263;18656;-79
2023/04/01 09:21:08;;;;;;;;;1.00;1.00;;;;;20.16;50.51;99174.14;110241;1263;19331;-78
2023/04/01 09:23:36;;;;;;;;;1.00;1.00;;;;;20.15;50.36;99174.26;110250;1257;20255;-78
2023/04/01 09:26:03;;;;;;;;;2.00;2.00;;;;;20.15;50.54;99173.38;110199;1263;18783;-78
2023/04/01 09:28:30;;;;;;;;;1.00;1.00;;;;;20.15;50.49;99178.77;110204;1257;19228;-78
2023/04/01 09:30:58;;;;;;;;;1.00;1.00;;;;;20.15;50.73;99183.79;110249;1251;19550;-78
2023/04/01 09:33:25;;;;;;;;;3.00;3.00;;;;;20.15;50.64;99189.65;110225;1263;22676;-78
2023/04/01 09:35:53;;;;;;;;;3.00;3.00;;;;;20.15;50.61;99188.82;110224;1263;19436;-78
2023/04/01 09:38:20;;;;;;;;;1.00;1.00;;;;;20.16;50.52;99195.59;110223;1247;18439;-78
2023/04/01 09:40:47;;;;;;;;;3.00;3.00;;;;;20.16;50.49;99200.08;110192;1263;20011;-78
2023/04/01 09:43:15;;;;;;;;;3.00;3.00;;;;;20.16;50.53;99198.48;110183;1264;19352;-78
2023/04/01 09:45:42;;;;;;;;;3.00;3.00;;;;;20.15;50.43;99204.34;110193;1257;18366;-78
2023/04/01 09:48:10;;;;;;;;;3.00;3.00;;;;;20.16;50.49;99205.73;110145;1263;22664;-78
2023/04/01 09:50:37;;;;;;;;;2.33;2.33;;;;;20.16;50.66;99207.35;110179;1263;20596;-78
2023/04/01 09:53:04;;;;;;;;;3.00;3.00;;;;;20.16;50.72;99212.92;110207;1263;18233;-78
2023/04/01 09:55:32;;;;;;;;;3.00;3.00;;;;;20.15;50.41;99213.42;110238;1256;19676;-78
2023/04/01 09:57:59;;;;;;;;;3.00;3.00;;;;;20.17;50.46;99218.08;110257;1247;20825;-78
2023/04/01 10:00:27;;;;;;;;;3.00;3.00;;;;;20.17;50.62;99222.46;110190;1248;19601;-78
2023/04/01 10:02:55;;;;;;;;;3.00;3.00;;;;;20.16;50.51;99221.45;110173;1263;22715;-78
2023/04/01 10:05:22;;;;;;;;;2.00;2.00;;;;;20.15;50.52;99232.27;110154;1263;19332;-78
2023/04/01 10:07:49;;;;;;;;;4.00;3.00;;;;;20.15;50.43;99234.60;110197;1263;22299;-78
2023/04/01 10:10:17;;;;;;;;;1.00;1.00;;;;;20.16;50.52;99240.70;110235;1256;18613;-78
2023/04/01 10:12:44;;;;;;;;;3.00;1.00;;;;;20.16;50.56;99245.39;110203;1247;20696;-78
2023/04/01 10:15:11;;;;;;;;;1.00;1.00;;;;;20.16;50.55;99247.24;110254;1247;22239;-78
2023/04/01 10:17:39;;;;;;;;;1.00;1.00;;;;;20.16;50.50;99251.35;110265;1264;19680;-78
2023/04/01 10:20:07;;;;;;;;;1.00;1.00;;;;;20.16;50.63;99250.48;110211;1263;19704;-78
2023/04/01 10:22:34;;;;;;;;;1.00;1.00;;;;;20.15;50.69;99247.48;109992;1260;22821;-78
2023/04/01 10:25:02;;;;;;;;;3.00;3.00;;;;;20.15;50.53;99253.84;110116;1264;19931;-78
2023/04/01 10:27:29;;;;;;;;;1.00;1.00;;;;;20.15;50.65;99253.13;110202;1257;19343;-78
2023/04/01 10:29:56;;;;;;;;;2.00;2.00;;;;;20.15;50.50;99253.80;110224;1250;19745;-78
2023/04/01 10:32:24;;;;;;;;;3.00;3.00;;;;;20.15;50.64;99260.92;110174;1250;20078;-79
2023/04/01 10:34:51;;;;;;;;;2.33;2.33;;;;;20.15;50.55;99262.26;110249;1257;20675;-78
2023/04/01 10:37:18;;;;;;;;;3.00;3.00;;;;;20.16;50.59;99263.02;110236;1264;22580;-78
2023/04/01 10:39:46;;;;;;;;;3.00;3.00;;;;;20.15;50.62;99262.77;110229;1264;18835;-77
2023/04/01 10:42:13;;;;;;;;;1.00;1.00;;;;;20.15;50.69;99262.72;110271;1264;19188;-78
2023/04/01 10:44:40;;;;;;;;;1.00;1.00;;;;;20.15;50.52;99265.98;110224;1264;19591;-78
2023/04/01 10:47:08;;;;;;;;;4.00;3.00;;;;;20.15;50.61;99266.70;110247;1264;19468;-78
2023/04/01 10:49:35;;;;;;;;;3.00;3.00;;;;;20.16;50.52;99266.11;110235;1257;19585;-78
2023/04/01 10:52:03;;;;;;;;;3.50;3.00;;;;;20.15;50.56;99268.48;110213;1264;20375;-78
2023/04/01 10:54:30;;;;;;;;;3.00;3.00;;;;;20.15;50.59;99270.14;110231;1257;18639;-78
2023/04/01 10:56:58;;;;;;;;;3.00;3.00;;;;;20.16;50.52;99272.60;110205;1251;20808;-78
2023/04/01 10:59:25;;;;;;;;;2.00;1.00;;;;;20.16;50.51;99276.26;110211;1264;22167;-78
2023/04/01 11:01:53;;;;;;;;;3.00;2.00;;;;;20.16;50.67;99273.31;110230;1249;21811;-78
2023/04/01 11:04:20;;;;;;;;;4.00;4.00;;;;;20.16;50.47;99278.08;110235;1250;22184;-77
2023/04/01 11:06:47;;;;;;;;;4.00;3.00;;;;;20.16;50.70;99286.86;110235;1250;19375;-78
2023/04/01 11:09:15;;;;;;;;;1.00;1.00;;;;;20.16;50.45;99288.91;110220;1264;18527;-78
2023/04/01 11:11:42;;;;;;;;;1.00;1.00;;;;;20.16;50.72;99296.52;110228;1264;19338;-78
2023/04/01 11:14:09;;;;;;;;;3.00;3.00;;;;;20.16;50.45;99299.11;110250;1264;18620;-79
2023/04/01 11:16:37;;;;;;;;;3.00;3.00;;;;;20.17;50.52;99303.90;110234;1264;22895;-78
2023/04/01 11:19:04;;;;;;;;;3.00;3.00;;;;;20.16;50.58;99307.41;110255;1257;21905;-79
2023/04/01 11:21:32;;;;;;;;;3.00;3.00;;;;;20.16;50.64;99309.05;110222;1250;18451;-78
2023/04/01 11:23:59;;;;;;;;;3.00;3.00;;;;;20.16;50.67;99313.27;110198;1264;18616;-79